createdAt,value
2019-05-28T00:00:31.011Z,26.70
2019-05-28T00:03:05.274Z,27.23
2019-05-28T00:05:38.151Z,25.20
2019-05-28T00:08:10.829Z,29.17
2019-05-28T00:10:42.871Z,30.17
2019-05-28T00:13:17.110Z,30.33
2019-05-28T00:15:49.738Z,28.60
2019-05-28T00:18:22.385Z,31.10
2019-05-28T00:20:55.993Z,29.23
2019-05-28T00:23:30.638Z,29.43
2019-05-28T00:26:04.471Z,29.00
2019-05-28T00:28:37.800Z,28.43
2019-05-28T00:31:10.458Z,28.87
2019-05-28T00:33:44.151Z,27.27
2019-05-28T00:36:16.581Z,27.07
2019-05-28T00:38:50.970Z,26.93
2019-05-28T00:41:24.544Z,27.23
2019-05-28T00:43:57.813Z,26.13
2019-05-28T00:46:31.484Z,26.93
2019-05-28T00:49:08.718Z,27.63
2019-05-28T00:51:43.458Z,26.53
2019-05-28T00:54:15.994Z,26.60
2019-05-28T00:56:51.387Z,26.53
2019-05-28T00:59:24.255Z,25.97
2019-05-28T01:01:57.745Z,26.23
2019-05-28T01:04:30.444Z,25.30
2019-05-28T01:07:02.773Z,25.57
2019-05-28T01:09:36.330Z,25.40
2019-05-28T01:12:10.891Z,25.40
2019-05-28T01:14:43.997Z,25.60
2019-05-28T01:17:16.686Z,25.63
2019-05-28T01:19:48.389Z,24.67
2019-05-28T01:22:22.250Z,25.03
2019-05-28T01:24:54.346Z,25.47
2019-05-28T01:27:27.571Z,24.97
2019-05-28T01:30:00.461Z,24.27
2019-05-28T01:32:33.323Z,24.83
2019-05-28T01:35:11.301Z,23.53
2019-05-28T01:37:44.406Z,24.50
2019-05-28T01:40:17.597Z,24.70
2019-05-28T01:42:49.150Z,25.03
2019-05-28T01:45:22.426Z,25.30
2019-05-28T01:47:57.775Z,24.27
2019-05-28T01:50:32.508Z,24.57
2019-05-28T01:53:05.173Z,24.60
2019-05-28T01:55:37.209Z,25.63
2019-05-28T01:58:10.010Z,26.90
2019-05-28T02:00:42.723Z,26.37
2019-05-28T02:03:15.859Z,28.00
2019-05-28T02:05:48.243Z,28.30
2019-05-28T02:08:20.634Z,25.27
2019-05-28T02:10:52.661Z,25.67
2019-05-28T02:13:26.265Z,26.97
2019-05-28T02:15:59.953Z,25.43
2019-05-28T02:18:32.766Z,25.90
2019-05-28T02:21:05.786Z,26.43
2019-05-28T02:23:38.238Z,24.63
2019-05-28T02:26:10.333Z,24.73
2019-05-28T02:28:41.975Z,25.10
2019-05-28T02:31:26.890Z,26.97
2019-05-28T02:33:48.611Z,26.10
2019-05-28T02:36:21.575Z,31.23
2019-05-28T02:39:04.757Z,29.77
2019-05-28T02:41:37.289Z,29.30
2019-05-28T02:44:11.092Z,30.20
2019-05-28T02:46:43.437Z,31.37
2019-05-28T02:49:15.518Z,27.40
2019-05-28T02:51:48.001Z,26.27
2019-05-28T02:54:20.307Z,27.40
2019-05-28T02:56:53.234Z,26.10
2019-05-28T02:59:26.603Z,27.67
2019-05-28T03:01:59.889Z,28.43
2019-05-28T03:04:33.195Z,31.43
2019-05-28T03:07:06.578Z,34.23
2019-05-28T03:09:41.897Z,42.53
2019-05-28T03:12:14.300Z,46.30
2019-05-28T03:14:46.794Z,42.83
2019-05-28T03:17:20.460Z,42.77
2019-05-28T03:19:52.174Z,45.37
2019-05-28T03:22:25.796Z,42.73
2019-05-28T03:24:58.976Z,39.37
2019-05-28T03:27:31.023Z,41.10
2019-05-28T03:30:03.032Z,40.70
2019-05-28T03:32:35.547Z,39.30
2019-05-28T03:35:07.812Z,36.67
2019-05-28T03:37:40.692Z,32.07
2019-05-28T03:40:14.942Z,31.83
2019-05-28T03:42:47.373Z,28.63
2019-05-28T03:45:20.284Z,29.20
2019-05-28T03:47:53.391Z,28.67
2019-05-28T03:50:25.400Z,28.60
2019-05-28T03:52:59.225Z,27.43
2019-05-28T03:55:33.459Z,25.93
2019-05-28T03:58:05.393Z,25.67
2019-05-28T04:00:37.894Z,26.43
2019-05-28T04:03:10.248Z,25.90
2019-05-28T04:05:43.510Z,26.27
2019-05-28T04:08:15.967Z,27.43
2019-05-28T04:10:48.830Z,26.83
2019-05-28T04:13:20.420Z,26.97
2019-05-28T04:15:51.981Z,26.77
2019-05-28T04:18:24.437Z,27.73
2019-05-28T04:20:56.454Z,27.30
2019-05-28T04:23:28.928Z,27.67
2019-05-28T04:26:01.154Z,25.93
2019-05-28T04:28:33.271Z,25.90
2019-05-28T04:31:05.761Z,26.37
2019-05-28T04:33:40.287Z,26.03
2019-05-28T04:36:12.015Z,24.93
2019-05-28T04:38:43.941Z,24.63
2019-05-28T04:41:15.968Z,25.53
2019-05-28T04:43:48.737Z,26.33
2019-05-28T04:46:21.917Z,24.87
2019-05-28T04:48:54.519Z,26.50
2019-05-28T04:51:27.184Z,26.90
2019-05-28T04:53:58.819Z,25.13
2019-05-28T04:56:31.229Z,23.53
2019-05-28T04:59:03.974Z,24.93
2019-05-28T05:01:37.243Z,23.63
2019-05-28T05:04:10.759Z,23.83
2019-05-28T05:06:44.240Z,21.73
2019-05-28T05:09:16.790Z,22.33
2019-05-28T05:11:48.966Z,21.90
2019-05-28T05:14:21.272Z,20.87
2019-05-28T05:16:54.431Z,19.97
2019-05-28T05:19:28.056Z,20.43
2019-05-28T05:22:02.237Z,19.47
2019-05-28T05:24:34.292Z,19.63
2019-05-28T05:27:07.617Z,17.93
2019-05-28T05:29:39.654Z,17.10
2019-05-28T05:32:11.705Z,18.97
2019-05-28T05:34:44.199Z,16.50
2019-05-28T05:37:16.801Z,16.37
2019-05-28T05:39:49.375Z,18.70
2019-05-28T05:42:22.690Z,17.17
2019-05-28T05:44:55.147Z,16.50
2019-05-28T05:47:27.591Z,15.83
2019-05-28T05:50:00.408Z,18.07
2019-05-28T05:52:33.890Z,38.40
2019-05-28T05:55:06.453Z,29.97
2019-05-28T05:57:42.681Z,23.53
2019-05-28T06:00:16.594Z,20.97
2019-05-28T06:02:49.454Z,19.03
2019-05-28T06:05:21.087Z,18.40
2019-05-28T06:07:53.228Z,20.97
2019-05-28T06:10:26.006Z,29.60
2019-05-28T06:12:58.703Z,33.80
2019-05-28T06:15:32.993Z,20.07
2019-05-28T06:18:07.255Z,28.37
2019-05-28T06:20:42.159Z,32.93
2019-05-28T06:23:17.182Z,37.27
2019-05-28T06:25:50.017Z,17.50
2019-05-28T06:28:22.163Z,34.33
2019-05-28T06:30:54.719Z,27.07
2019-05-28T06:33:27.201Z,37.67
2019-05-28T06:35:58.870Z,37.70
2019-05-28T06:38:31.697Z,20.00
2019-05-28T06:41:04.913Z,29.13
2019-05-28T06:43:36.922Z,26.70
2019-05-28T06:46:12.047Z,26.07
2019-05-28T06:48:44.088Z,20.43
2019-05-28T06:51:16.446Z,19.17
2019-05-28T06:53:48.460Z,13.00
2019-05-28T06:56:22.177Z,12.37
2019-05-28T06:58:55.859Z,11.80
2019-05-28T07:01:28.834Z,12.37
2019-05-28T07:04:13.278Z,20.63
2019-05-28T07:06:36.538Z,13.57
2019-05-28T07:09:11.830Z,10.87
2019-05-28T07:11:43.799Z,10.80
2019-05-28T07:14:16.301Z,15.63
2019-05-28T07:16:53.270Z,48.73
2019-05-28T07:19:24.937Z,20.13
2019-05-28T07:21:58.229Z,43.07
2019-05-28T07:24:31.551Z,40.90
2019-05-28T07:27:04.548Z,32.60
2019-05-28T07:29:38.887Z,41.50
2019-05-28T07:32:12.402Z,24.07
2019-05-28T07:34:48.316Z,19.70
2019-05-28T07:37:21.669Z,32.23
2019-05-28T07:39:55.527Z,36.03
2019-05-28T07:42:32.533Z,37.77
2019-05-28T07:45:04.549Z,31.40
2019-05-28T07:47:38.771Z,16.30
2019-05-28T07:50:12.014Z,20.23
2019-05-28T07:52:44.874Z,19.90
2019-05-28T07:55:19.645Z,26.97
2019-05-28T07:57:53.083Z,30.63
2019-05-28T08:00:43.422Z,30.23
2019-05-28T08:03:16.630Z,12.10
2019-05-28T08:05:48.997Z,8.60
2019-05-28T08:08:25.270Z,9.03
2019-05-28T08:10:56.820Z,10.57
2019-05-28T08:13:40.342Z,16.97
2019-05-28T08:16:17.391Z,23.60
2019-05-28T08:18:38.864Z,23.10
2019-05-28T08:21:12.358Z,55.10
2019-05-28T08:23:46.418Z,13.63
2019-05-28T08:26:19.642Z,10.57
2019-05-28T08:29:02.715Z,17.03
2019-05-28T08:31:37.355Z,16.17
2019-05-28T08:34:11.183Z,11.37
2019-05-28T08:37:01.860Z,19.93
2019-05-28T08:39:20.624Z,15.20
2019-05-28T08:41:54.218Z,11.87
2019-05-28T08:44:38.349Z,21.97
2019-05-28T08:47:13.084Z,8.97
2019-05-28T08:49:45.419Z,8.47
2019-05-28T08:52:18.246Z,9.07
2019-05-28T08:54:51.985Z,10.10
2019-05-28T08:57:24.998Z,9.90
2019-05-28T08:59:57.613Z,9.40
2019-05-28T09:02:31.362Z,15.17
2019-05-28T09:05:22.760Z,16.73
2019-05-28T09:07:38.426Z,11.63
2019-05-28T09:10:10.771Z,40.13
2019-05-28T09:12:44.604Z,35.13
2019-05-28T09:15:18.402Z,39.03
2019-05-28T09:17:53.206Z,16.17
2019-05-28T09:20:25.957Z,24.17
2019-05-28T09:23:00.095Z,28.93
2019-05-28T09:25:33.065Z,14.13
2019-05-28T09:28:07.065Z,31.63
2019-05-28T09:30:41.399Z,23.90
2019-05-28T09:33:14.748Z,29.17
2019-05-28T09:36:06.272Z,10.30
2019-05-28T09:38:23.496Z,22.47
2019-05-28T09:40:56.977Z,14.77
2019-05-28T09:43:30.611Z,11.23
2019-05-28T09:46:03.381Z,8.03
2019-05-28T09:48:36.524Z,13.13
2019-05-28T09:51:10.894Z,20.97
2019-05-28T09:53:44.830Z,11.77
2019-05-28T09:56:19.072Z,15.73
2019-05-28T09:58:53.519Z,8.43
2019-05-28T10:01:26.666Z,8.83
2019-05-28T10:03:58.737Z,6.97
2019-05-28T10:06:37.320Z,7.20
2019-05-28T10:09:06.572Z,11.87
2019-05-28T10:11:40.700Z,7.30
2019-05-28T10:14:15.106Z,12.13
2019-05-28T10:16:49.227Z,7.40
2019-05-28T10:19:23.882Z,6.23
2019-05-28T10:21:56.923Z,5.70
2019-05-28T10:24:32.444Z,6.00
2019-05-28T10:27:06.832Z,5.93
2019-05-28T10:29:39.942Z,5.70
2019-05-28T10:32:12.440Z,9.90
2019-05-28T10:35:02.628Z,11.40
2019-05-28T10:37:19.522Z,14.33
2019-05-28T10:39:52.678Z,12.97
2019-05-28T10:42:25.085Z,7.60
2019-05-28T10:44:58.438Z,9.60
2019-05-28T10:47:32.880Z,9.13
2019-05-28T10:50:10.521Z,8.80
2019-05-28T10:52:46.422Z,8.23
2019-05-28T10:55:29.623Z,7.23
2019-05-28T10:58:03.594Z,6.97
2019-05-28T11:00:36.259Z,6.37
2019-05-28T11:03:09.322Z,6.80
2019-05-28T11:05:43.502Z,7.03
2019-05-28T11:08:17.368Z,7.53
2019-05-28T11:10:53.009Z,7.87
2019-05-28T11:13:26.655Z,7.10
2019-05-28T11:15:59.237Z,5.80
2019-05-28T11:18:32.026Z,7.40
2019-05-28T11:21:09.532Z,6.57
2019-05-28T11:23:39.717Z,7.07
2019-05-28T11:26:14.263Z,6.67
2019-05-28T11:28:53.156Z,7.33
2019-05-28T11:31:26.757Z,8.17
2019-05-28T11:34:00.633Z,7.07
2019-05-28T11:36:39.499Z,6.30
2019-05-28T11:39:14.716Z,6.80
2019-05-28T11:41:49.089Z,8.80
2019-05-28T11:44:41.692Z,7.10
2019-05-28T11:47:19.923Z,15.37
2019-05-28T11:49:58.126Z,9.87
2019-05-28T11:52:34.824Z,7.20
2019-05-28T11:55:19.439Z,7.50
2019-05-28T11:57:52.490Z,7.77
2019-05-28T12:00:27.325Z,7.57
2019-05-28T12:02:59.514Z,6.53
2019-05-28T12:05:33.578Z,7.17
2019-05-28T12:08:08.126Z,7.97
2019-05-28T12:10:39.895Z,8.27
2019-05-28T12:13:12.952Z,7.00
2019-05-28T12:15:46.419Z,10.70
2019-05-28T12:18:19.654Z,7.67
2019-05-28T12:20:53.314Z,7.47
2019-05-28T12:23:26.366Z,7.27
2019-05-28T12:25:58.958Z,7.60
2019-05-28T12:28:37.694Z,7.60
2019-05-28T12:31:06.809Z,7.70
2019-05-28T12:33:40.912Z,7.87
2019-05-28T12:36:13.847Z,7.57
2019-05-28T12:38:46.681Z,7.97
2019-05-28T12:41:21.191Z,7.57
2019-05-28T12:43:54.960Z,8.53
2019-05-28T12:46:28.691Z,7.80
2019-05-28T12:49:02.368Z,7.10
2019-05-28T12:51:35.818Z,6.43
2019-05-28T12:54:10.707Z,6.00
2019-05-28T12:56:43.265Z,6.00
2019-05-28T12:59:17.657Z,5.60
2019-05-28T13:01:55.954Z,5.80
2019-05-28T13:04:29.425Z,5.87
2019-05-28T13:07:02.893Z,5.67
2019-05-28T13:09:36.946Z,5.70
2019-05-28T13:12:20.674Z,7.07
2019-05-28T13:14:53.941Z,6.63
2019-05-28T13:17:29.430Z,6.73
2019-05-28T13:20:03.011Z,5.83
2019-05-28T13:22:36.426Z,6.13
2019-05-28T13:25:09.979Z,6.60
2019-05-28T13:27:42.550Z,6.80
2019-05-28T13:30:17.571Z,6.57
2019-05-28T13:32:51.222Z,6.97
2019-05-28T13:35:24.594Z,7.20
2019-05-28T13:37:58.507Z,7.30
2019-05-28T13:40:32.514Z,6.73
2019-05-28T13:43:06.569Z,6.97
2019-05-28T13:45:40.849Z,6.60
2019-05-28T13:48:24.942Z,7.40
2019-05-28T13:50:59.128Z,6.80
2019-05-28T13:53:34.564Z,5.70
2019-05-28T13:56:08.616Z,6.37
2019-05-28T13:58:41.823Z,6.20
2019-05-28T14:01:25.823Z,5.70
2019-05-28T14:03:58.608Z,5.57
2019-05-28T14:06:32.072Z,6.03
2019-05-28T14:09:08.214Z,5.63
2019-05-28T14:11:41.065Z,5.47
2019-05-28T14:14:15.238Z,5.70
2019-05-28T14:16:50.130Z,5.10
2019-05-28T14:19:23.676Z,5.30
2019-05-28T14:21:58.013Z,5.43
2019-05-28T14:24:30.587Z,5.70
2019-05-28T14:27:05.703Z,5.43
2019-05-28T14:29:39.422Z,6.17
2019-05-28T14:32:11.442Z,5.03
2019-05-28T14:34:45.708Z,5.67
2019-05-28T14:37:19.054Z,6.00
2019-05-28T14:39:51.594Z,6.17
2019-05-28T14:42:24.519Z,6.17
2019-05-28T14:44:58.462Z,6.00
2019-05-28T14:47:32.043Z,7.27
2019-05-28T14:50:08.343Z,6.40
2019-05-28T14:52:41.834Z,6.47
2019-05-28T14:55:16.787Z,6.33
2019-05-28T14:57:50.385Z,5.67
2019-05-28T15:00:24.054Z,6.00
2019-05-28T15:02:56.575Z,6.40
2019-05-28T15:05:29.413Z,6.20
2019-05-28T15:08:02.461Z,6.30
2019-05-28T15:10:36.239Z,6.77
2019-05-28T15:13:09.625Z,6.30
2019-05-28T15:15:43.138Z,7.17
2019-05-28T15:18:17.090Z,6.23
2019-05-28T15:20:49.671Z,6.73
2019-05-28T15:23:24.706Z,6.63
2019-05-28T15:25:58.003Z,6.30
2019-05-28T15:28:30.758Z,6.60
2019-05-28T15:31:04.615Z,6.13
2019-05-28T15:33:37.940Z,6.10
2019-05-28T15:36:11.443Z,6.87
2019-05-28T15:38:45.196Z,6.33
2019-05-28T15:41:19.305Z,5.80
2019-05-28T15:43:53.618Z,6.40
2019-05-28T15:46:27.538Z,6.33
2019-05-28T15:49:02.482Z,7.57
2019-05-28T15:51:35.290Z,7.30
2019-05-28T15:54:08.375Z,6.67
2019-05-28T15:56:41.787Z,6.50
2019-05-28T15:59:17.306Z,6.67
2019-05-28T16:01:49.806Z,74.80
2019-05-28T16:04:23.787Z,12.70
2019-05-28T16:06:58.066Z,22.37
2019-05-28T16:09:33.992Z,13.40
2019-05-28T16:12:25.656Z,9.27
2019-05-28T16:14:59.493Z,9.13
2019-05-28T16:17:33.563Z,8.60
2019-05-28T16:20:10.650Z,7.37
2019-05-28T16:22:47.618Z,7.43
2019-05-28T16:25:24.138Z,7.73
2019-05-28T16:27:59.794Z,7.73
2019-05-28T16:30:35.492Z,7.13
2019-05-28T16:33:08.838Z,7.83
2019-05-28T16:35:45.122Z,8.30
2019-05-28T16:38:27.038Z,8.67
2019-05-28T16:41:03.244Z,9.33
2019-05-28T16:43:41.645Z,8.93
2019-05-28T16:46:16.760Z,9.83
2019-05-28T16:48:52.936Z,10.33
2019-05-28T16:54:38.521Z,12.33
2019-05-28T16:57:17.654Z,13.17
2019-05-28T16:59:54.677Z,13.40
2019-05-28T17:02:31.854Z,14.43
2019-05-28T17:05:13.682Z,13.77
2019-05-28T17:07:50.423Z,13.83
2019-05-28T17:10:33.660Z,14.77
2019-05-28T17:13:11.678Z,14.87
2019-05-28T17:15:47.414Z,13.53
2019-05-28T17:18:22.804Z,11.23
2019-05-28T17:20:55.468Z,18.27
2019-05-28T17:23:27.974Z,16.70
2019-05-28T17:26:00.214Z,14.27
2019-05-28T17:28:33.893Z,14.23
2019-05-28T17:31:08.764Z,13.07
2019-05-28T17:33:43.765Z,15.07
2019-05-28T17:36:18.380Z,32.53
2019-05-28T17:38:52.690Z,18.93
2019-05-28T17:41:27.538Z,14.70
2019-05-28T17:44:01.582Z,14.27
2019-05-28T17:46:34.591Z,48.27
2019-05-28T17:49:08.334Z,28.23
2019-05-28T17:51:41.769Z,19.07
2019-05-28T17:54:16.602Z,20.70
2019-05-28T17:56:50.629Z,19.47
2019-05-28T17:59:24.288Z,18.13
2019-05-28T18:01:57.175Z,17.07
2019-05-28T18:04:30.014Z,16.33
2019-05-28T18:07:02.867Z,21.20
2019-05-28T18:09:36.081Z,19.90
2019-05-28T18:12:08.736Z,20.70
2019-05-28T18:14:42.765Z,17.13
2019-05-28T18:17:16.521Z,16.80
2019-05-28T18:19:49.627Z,14.50
2019-05-28T18:22:24.134Z,13.43
2019-05-28T18:24:57.525Z,14.23
2019-05-28T18:27:30.974Z,14.00
2019-05-28T18:30:05.096Z,14.00
2019-05-28T18:32:38.559Z,12.63
2019-05-28T18:35:12.446Z,13.70
2019-05-28T18:37:46.067Z,13.43
2019-05-28T18:40:19.910Z,15.23
2019-05-28T18:42:52.793Z,14.50
2019-05-28T18:45:25.305Z,16.27
2019-05-28T18:47:59.892Z,14.33
2019-05-28T18:50:33.767Z,14.17
2019-05-28T18:53:08.086Z,14.80
2019-05-28T18:55:41.307Z,14.73
2019-05-28T18:58:15.295Z,16.57
2019-05-28T19:00:48.251Z,15.57
2019-05-28T19:03:22.105Z,15.77
2019-05-28T19:05:55.487Z,17.17
2019-05-28T19:08:27.609Z,15.63
2019-05-28T19:11:01.231Z,18.07
2019-05-28T19:13:39.230Z,15.70
2019-05-28T19:16:17.503Z,14.80
2019-05-28T19:18:50.628Z,14.23
2019-05-28T19:21:25.298Z,13.47
2019-05-28T19:23:59.898Z,11.60
2019-05-28T19:26:33.814Z,11.47
2019-05-28T19:29:08.011Z,11.13
2019-05-28T19:31:42.414Z,12.00
2019-05-28T19:34:15.637Z,11.60
2019-05-28T19:36:49.650Z,11.60
2019-05-28T19:39:24.374Z,12.47
2019-05-28T19:41:57.114Z,12.50
2019-05-28T19:44:31.366Z,13.13
2019-05-28T19:47:05.102Z,12.30
2019-05-28T19:49:39.090Z,12.63
2019-05-28T19:52:11.670Z,15.20
2019-05-28T19:54:45.236Z,17.30
2019-05-28T19:57:19.802Z,16.77
2019-05-28T19:59:52.656Z,15.83
2019-05-28T20:02:26.838Z,17.30
2019-05-28T20:05:00.461Z,15.67
2019-05-28T20:07:33.200Z,17.20
2019-05-28T20:10:06.592Z,15.73
2019-05-28T20:12:40.461Z,17.40
2019-05-28T20:15:15.071Z,16.53
2019-05-28T20:17:48.439Z,17.13
2019-05-28T20:20:22.940Z,18.57
2019-05-28T20:22:56.374Z,17.77
2019-05-28T20:25:29.488Z,16.83
2019-05-28T20:28:05.064Z,17.40
2019-05-28T20:30:38.084Z,16.73
2019-05-28T20:33:11.443Z,16.13
2019-05-28T20:35:45.653Z,15.93
2019-05-28T20:38:20.400Z,15.63
2019-05-28T20:41:01.921Z,15.47
2019-05-28T20:43:37.834Z,15.27
2019-05-28T20:46:12.414Z,15.33
2019-05-28T20:48:50.395Z,15.20
2019-05-28T20:51:24.913Z,17.60
2019-05-28T20:53:58.606Z,19.83
2019-05-28T20:56:31.814Z,17.90
2019-05-28T20:59:04.777Z,17.90
2019-05-28T21:01:40.771Z,19.47
2019-05-28T21:04:13.679Z,22.07
2019-05-28T21:06:46.240Z,20.17
2019-05-28T21:09:19.213Z,20.13
2019-05-28T21:11:52.764Z,17.30
2019-05-28T21:14:26.703Z,20.90
2019-05-28T21:17:00.204Z,20.47
2019-05-28T21:19:33.309Z,21.77
2019-05-28T21:22:07.388Z,20.97
2019-05-28T21:24:40.343Z,20.17
2019-05-28T21:27:13.116Z,19.27
2019-05-28T21:29:45.453Z,18.77
2019-05-28T21:32:18.501Z,18.20
2019-05-28T21:34:54.944Z,17.90
2019-05-28T21:37:26.698Z,17.27
2019-05-28T21:40:00.079Z,17.10
2019-05-28T21:42:33.681Z,14.77
2019-05-28T21:45:08.303Z,13.90
2019-05-28T21:47:42.090Z,13.90
2019-05-28T21:50:15.497Z,13.40
2019-05-28T21:52:49.691Z,13.57
2019-05-28T21:55:22.339Z,13.60
2019-05-28T21:57:56.064Z,12.97
2019-05-28T22:00:49.017Z,14.80
2019-05-28T22:03:22.386Z,15.37
2019-05-28T22:05:55.340Z,14.70
2019-05-28T22:08:28.284Z,14.10
2019-05-28T22:11:06.186Z,15.23
2019-05-28T22:13:49.818Z,15.13
2019-05-28T22:16:24.602Z,14.37
2019-05-28T22:18:58.251Z,15.47
2019-05-28T22:21:31.582Z,16.07
2019-05-28T22:24:06.205Z,16.13
2019-05-28T22:26:39.330Z,16.50
2019-05-28T22:29:12.635Z,18.33
2019-05-28T22:31:47.992Z,18.93
2019-05-28T22:34:21.275Z,19.43
2019-05-28T22:36:53.442Z,20.77
2019-05-28T22:39:29.481Z,19.70
2019-05-28T22:42:04.431Z,19.10
2019-05-28T22:44:38.956Z,20.17
2019-05-28T22:47:11.741Z,20.37
2019-05-28T22:49:46.400Z,20.47
2019-05-28T22:52:22.160Z,19.77
2019-05-28T22:54:55.404Z,20.57
2019-05-28T22:57:28.008Z,20.40
2019-05-28T23:00:03.086Z,19.67
2019-05-28T23:02:36.255Z,18.60
2019-05-28T23:05:10.211Z,19.47
2019-05-28T23:07:45.042Z,19.53
2019-05-28T23:10:17.379Z,20.00
2019-05-28T23:12:52.066Z,22.10
2019-05-28T23:15:25.526Z,20.00
2019-05-28T23:18:00.361Z,21.17
2019-05-28T23:20:34.934Z,28.17
2019-05-28T23:23:09.486Z,33.57
2019-05-28T23:25:42.597Z,33.33
2019-05-28T23:28:15.793Z,33.37
2019-05-28T23:30:48.777Z,34.50
2019-05-28T23:33:22.622Z,32.73
2019-05-28T23:35:57.254Z,32.33
2019-05-28T23:38:31.122Z,33.00
2019-05-28T23:41:05.104Z,34.83
2019-05-28T23:43:38.056Z,34.27
2019-05-28T23:46:10.109Z,33.60
2019-05-28T23:48:43.639Z,32.70
2019-05-28T23:51:16.040Z,32.53
2019-05-28T23:53:48.623Z,31.73
2019-05-28T23:56:22.814Z,33.27
2019-05-28T23:58:56.577Z,31.13
